sensor_id;sensor_type;location;lat;lon;timestamp;P1;durP1;ratioP1;P2;durP2;ratioP2
8254;SDS011;4167;48.162;11.542;2022-12-29T00:02:17;167.00;;;48.20;;
8254;SDS011;4167;48.162;11.542;2022-12-29T00:04:44;114.50;;;45.37;;
8254;SDS011;4167;48.162;11.542;2022-12-29T00:07:11;133.50;;;46.80;;
8254;SDS011;4167;48.162;11.542;2022-12-29T00:09:38;117.33;;;45.90;;
8254;SDS011;4167;48.162;11.542;2022-12-29T00:12:05;195.47;;;50.03;;
8254;SDS011;4167;48.162;11.542;2022-12-29T00:14:31;147.20;;;47.10;;
8254;SDS011;4167;48.162;11.542;2022-12-29T00:17:12;134.37;;;46.70;;
8254;SDS011;4167;48.162;11.542;2022-12-29T00:19:38;113.30;;;45.77;;
8254;SDS011;4167;48.162;11.542;2022-12-29T00:22:24;128.70;;;46.53;;
8254;SDS011;4167;48.162;11.542;2022-12-29T00:25:09;131.00;;;47.53;;
8254;SDS011;4167;48.162;11.542;2022-12-29T00:27:54;142.03;;;47.57;;
8254;SDS011;4167;48.162;11.542;2022-12-29T00:30:37;102.07;;;45.27;;
8254;SDS011;4167;48.162;11.542;2022-12-29T00:33:24;105.47;;;45.17;;
8254;SDS011;4167;48.162;11.542;2022-12-29T00:36:11;105.13;;;45.20;;
8254;SDS011;4167;48.162;11.542;2022-12-29T00:38:42;113.27;;;46.07;;
8254;SDS011;4167;48.162;11.542;2022-12-29T00:41:30;120.70;;;46.47;;
8254;SDS011;4167;48.162;11.542;2022-12-29T00:44:14;150.30;;;47.33;;
8254;SDS011;4167;48.162;11.542;2022-12-29T00:46:41;110.47;;;44.90;;
8254;SDS011;4167;48.162;11.542;2022-12-29T00:49:09;111.83;;;45.57;;
8254;SDS011;4167;48.162;11.542;2022-12-29T00:51:54;275.70;;;54.40;;
8254;SDS011;4167;48.162;11.542;2022-12-29T00:54:23;182.77;;;49.20;;
8254;SDS011;4167;48.162;11.542;2022-12-29T00:56:50;137.77;;;47.00;;
8254;SDS011;4167;48.162;11.542;2022-12-29T00:59:17;118.87;;;46.70;;
8254;SDS011;4167;48.162;11.542;2022-12-29T01:01:44;187.73;;;49.70;;
8254;SDS011;4167;48.162;11.542;2022-12-29T01:04:11;162.57;;;48.73;;
8254;SDS011;4167;48.162;11.542;2022-12-29T01:06:38;113.00;;;45.57;;
8254;SDS011;4167;48.162;11.542;2022-12-29T01:09:06;93.67;;;45.03;;
8254;SDS011;4167;48.162;11.542;2022-12-29T01:11:53;240.40;;;52.20;;
8254;SDS011;4167;48.162;11.542;2022-12-29T01:14:20;155.60;;;47.43;;
8254;SDS011;4167;48.162;11.542;2022-12-29T01:16:46;105.23;;;45.17;;
8254;SDS011;4167;48.162;11.542;2022-12-29T01:19:13;113.30;;;45.53;;
8254;SDS011;4167;48.162;11.542;2022-12-29T01:21:40;109.30;;;45.47;;
8254;SDS011;4167;48.162;11.542;2022-12-29T01:24:07;126.63;;;46.50;;
8254;SDS011;4167;48.162;11.542;2022-12-29T01:26:34;111.27;;;45.10;;
8254;SDS011;4167;48.162;11.542;2022-12-29T01:29:02;132.13;;;46.23;;
8254;SDS011;4167;48.162;11.542;2022-12-29T01:31:28;117.67;;;45.60;;
8254;SDS011;4167;48.162;11.542;2022-12-29T01:33:55;144.30;;;46.77;;
8254;SDS011;4167;48.162;11.542;2022-12-29T01:36:22;115.00;;;45.23;;
8254;SDS011;4167;48.162;11.542;2022-12-29T01:38:49;121.20;;;46.37;;
8254;SDS011;4167;48.162;11.542;2022-12-29T01:41:16;124.57;;;46.00;;
8254;SDS011;4167;48.162;11.542;2022-12-29T01:43:43;120.43;;;46.37;;
8254;SDS011;4167;48.162;11.542;2022-12-29T01:46:15;117.97;;;45.47;;
8254;SDS011;4167;48.162;11.542;2022-12-29T01:48:48;131.00;;;46.50;;
8254;SDS011;4167;48.162;11.542;2022-12-29T01:51:18;112.67;;;45.60;;
8254;SDS011;4167;48.162;11.542;2022-12-29T01:53:45;77.70;;;43.70;;
8254;SDS011;4167;48.162;11.542;2022-12-29T01:56:12;110.20;;;45.10;;
8254;SDS011;4167;48.162;11.542;2022-12-29T01:58:41;87.40;;;44.27;;
8254;SDS011;4167;48.162;11.542;2022-12-29T02:01:11;97.87;;;44.87;;
8254;SDS011;4167;48.162;11.542;2022-12-29T02:03:39;150.27;;;47.77;;
8254;SDS011;4167;48.162;11.542;2022-12-29T02:06:07;120.90;;;45.40;;
8254;SDS011;4167;48.162;11.542;2022-12-29T02:08:36;126.33;;;46.63;;
8254;SDS011;4167;48.162;11.542;2022-12-29T02:11:04;123.00;;;46.17;;
8254;SDS011;4167;48.162;11.542;2022-12-29T02:13:31;103.93;;;45.27;;
8254;SDS011;4167;48.162;11.542;2022-12-29T02:16:00;171.83;;;48.97;;
8254;SDS011;4167;48.162;11.542;2022-12-29T02:18:35;112.20;;;45.90;;
8254;SDS011;4167;48.162;11.542;2022-12-29T02:27:34;112.50;;;45.30;;
8254;SDS011;4167;48.162;11.542;2022-12-29T02:30:26;141.57;;;47.47;;
8254;SDS011;4167;48.162;11.542;2022-12-29T02:33:09;94.13;;;44.70;;
8254;SDS011;4167;48.162;11.542;2022-12-29T02:35:44;129.77;;;46.27;;
8254;SDS011;4167;48.162;11.542;2022-12-29T02:38:18;130.60;;;46.60;;
8254;SDS011;4167;48.162;11.542;2022-12-29T02:40:51;138.90;;;46.50;;
8254;SDS011;4167;48.162;11.542;2022-12-29T02:43:23;98.00;;;44.63;;
8254;SDS011;4167;48.162;11.542;2022-12-29T02:45:54;133.83;;;47.17;;
8254;SDS011;4167;48.162;11.542;2022-12-29T02:48:24;105.13;;;45.60;;
8254;SDS011;4167;48.162;11.542;2022-12-29T02:50:52;121.40;;;46.40;;
8254;SDS011;4167;48.162;11.542;2022-12-29T02:53:24;127.43;;;46.87;;
8254;SDS011;4167;48.162;11.542;2022-12-29T02:56:05;131.50;;;46.60;;
8254;SDS011;4167;48.162;11.542;2022-12-29T02:58:32;104.50;;;45.73;;
8254;SDS011;4167;48.162;11.542;2022-12-29T03:01:03;127.40;;;46.80;;
8254;SDS011;4167;48.162;11.542;2022-12-29T03:03:45;110.37;;;45.70;;
8254;SDS011;4167;48.162;11.542;2022-12-29T03:06:19;102.30;;;45.53;;
8254;SDS011;4167;48.162;11.542;2022-12-29T03:08:54;137.67;;;47.47;;
8254;SDS011;4167;48.162;11.542;2022-12-29T03:11:25;110.17;;;46.37;;
8254;SDS011;4167;48.162;11.542;2022-12-29T03:14:13;188.37;;;49.70;;
8254;SDS011;4167;48.162;11.542;2022-12-29T03:17:03;112.10;;;45.70;;
8254;SDS011;4167;48.162;11.542;2022-12-29T03:19:35;84.47;;;44.30;;
8254;SDS011;4167;48.162;11.542;2022-12-29T03:22:04;108.83;;;45.17;;
8254;SDS011;4167;48.162;11.542;2022-12-29T03:24:51;172.43;;;48.53;;
8254;SDS011;4167;48.162;11.542;2022-12-29T03:27:19;98.17;;;45.37;;
8254;SDS011;4167;48.162;11.542;2022-12-29T03:29:47;113.90;;;45.90;;
8254;SDS011;4167;48.162;11.542;2022-12-29T03:32:20;101.60;;;45.77;;
8254;SDS011;4167;48.162;11.542;2022-12-29T03:34:49;109.13;;;46.07;;
8254;SDS011;4167;48.162;11.542;2022-12-29T03:37:18;95.70;;;45.40;;
8254;SDS011;4167;48.162;11.542;2022-12-29T03:39:47;103.17;;;45.23;;
8254;SDS011;4167;48.162;11.542;2022-12-29T03:42:15;132.40;;;46.87;;
8254;SDS011;4167;48.162;11.542;2022-12-29T03:44:44;98.10;;;45.27;;
8254;SDS011;4167;48.162;11.542;2022-12-29T03:47:11;98.97;;;45.87;;
8254;SDS011;4167;48.162;11.542;2022-12-29T03:49:39;96.83;;;45.60;;
8254;SDS011;4167;48.162;11.542;2022-12-29T03:52:06;92.77;;;45.60;;
8254;SDS011;4167;48.162;11.542;2022-12-29T03:54:33;109.30;;;46.17;;
8254;SDS011;4167;48.162;11.542;2022-12-29T03:56:59;153.10;;;48.00;;
8254;SDS011;4167;48.162;11.542;2022-12-29T03:59:26;119.13;;;46.23;;
8254;SDS011;4167;48.162;11.542;2022-12-29T04:01:52;105.97;;;46.53;;
8254;SDS011;4167;48.162;11.542;2022-12-29T04:04:19;163.27;;;48.60;;
8254;SDS011;4167;48.162;11.542;2022-12-29T04:06:46;108.27;;;46.27;;
8254;SDS011;4167;48.162;11.542;2022-12-29T04:09:13;90.73;;;45.23;;
8254;SDS011;4167;48.162;11.542;2022-12-29T04:11:40;95.13;;;45.03;;
8254;SDS011;4167;48.162;11.542;2022-12-29T04:14:06;110.33;;;46.07;;
8254;SDS011;4167;48.162;11.542;2022-12-29T04:16:33;125.43;;;47.00;;
8254;SDS011;4167;48.162;11.542;2022-12-29T04:19:03;112.33;;;46.40;;
8254;SDS011;4167;48.162;11.542;2022-12-29T04:21:30;150.13;;;47.80;;
8254;SDS011;4167;48.162;11.542;2022-12-29T04:23:58;111.77;;;46.43;;
8254;SDS011;4167;48.162;11.542;2022-12-29T04:26:24;135.53;;;47.37;;
8254;SDS011;4167;48.162;11.542;2022-12-29T04:28:51;133.40;;;47.70;;
8254;SDS011;4167;48.162;11.542;2022-12-29T04:31:18;88.33;;;45.60;;
8254;SDS011;4167;48.162;11.542;2022-12-29T04:33:44;93.30;;;45.40;;
8254;SDS011;4167;48.162;11.542;2022-12-29T04:36:11;99.83;;;45.63;;
8254;SDS011;4167;48.162;11.542;2022-12-29T04:38:37;87.67;;;45.37;;
8254;SDS011;4167;48.162;11.542;2022-12-29T04:41:05;145.63;;;47.87;;
8254;SDS011;4167;48.162;11.542;2022-12-29T04:43:32;133.00;;;47.10;;
8254;SDS011;4167;48.162;11.542;2022-12-29T04:45:58;151.73;;;48.60;;
8254;SDS011;4167;48.162;11.542;2022-12-29T04:48:25;113.37;;;46.60;;
8254;SDS011;4167;48.162;11.542;2022-12-29T04:50:51;128.13;;;47.07;;
8254;SDS011;4167;48.162;11.542;2022-12-29T04:53:18;85.73;;;44.87;;
8254;SDS011;4167;48.162;11.542;2022-12-29T04:55:47;94.27;;;45.33;;
8254;SDS011;4167;48.162;11.542;2022-12-29T04:58:16;81.37;;;45.13;;
8254;SDS011;4167;48.162;11.542;2022-12-29T05:00:42;91.00;;;45.17;;
8254;SDS011;4167;48.162;11.542;2022-12-29T05:03:09;84.70;;;45.10;;
8254;SDS011;4167;48.162;11.542;2022-12-29T05:05:35;114.03;;;46.20;;
8254;SDS011;4167;48.162;11.542;2022-12-29T05:08:02;104.83;;;45.83;;
8254;SDS011;4167;48.162;11.542;2022-12-29T05:10:29;161.33;;;48.23;;
8254;SDS011;4167;48.162;11.542;2022-12-29T05:12:55;117.70;;;46.60;;
8254;SDS011;4167;48.162;11.542;2022-12-29T05:15:23;123.13;;;47.33;;
8254;SDS011;4167;48.162;11.542;2022-12-29T05:17:50;196.53;;;50.27;;
8254;SDS011;4167;48.162;11.542;2022-12-29T05:20:17;106.97;;;46.40;;
8254;SDS011;4167;48.162;11.542;2022-12-29T05:22:43;90.33;;;45.27;;
8254;SDS011;4167;48.162;11.542;2022-12-29T05:25:10;130.33;;;47.53;;
8254;SDS011;4167;48.162;11.542;2022-12-29T05:27:36;126.23;;;46.97;;
8254;SDS011;4167;48.162;11.542;2022-12-29T05:30:03;157.67;;;48.33;;
8254;SDS011;4167;48.162;11.542;2022-12-29T05:32:32;127.57;;;47.17;;
8254;SDS011;4167;48.162;11.542;2022-12-29T05:34:58;110.93;;;46.53;;
8254;SDS011;4167;48.162;11.542;2022-12-29T05:37:25;139.97;;;48.10;;
8254;SDS011;4167;48.162;11.542;2022-12-29T05:39:51;101.27;;;45.63;;
8254;SDS011;4167;48.162;11.542;2022-12-29T05:42:18;124.63;;;47.17;;
8254;SDS011;4167;48.162;11.542;2022-12-29T05:44:44;106.27;;;46.10;;
8254;SDS011;4167;48.162;11.542;2022-12-29T05:47:11;116.03;;;46.57;;
8254;SDS011;4167;48.162;11.542;2022-12-29T05:49:39;100.03;;;45.97;;
8254;SDS011;4167;48.162;11.542;2022-12-29T05:52:05;90.10;;;45.50;;
8254;SDS011;4167;48.162;11.542;2022-12-29T05:54:32;100.43;;;46.00;;
8254;SDS011;4167;48.162;11.542;2022-12-29T05:56:58;104.00;;;46.07;;
8254;SDS011;4167;48.162;11.542;2022-12-29T05:59:25;131.57;;;47.33;;
8254;SDS011;4167;48.162;11.542;2022-12-29T06:01:51;128.03;;;47.43;;
8254;SDS011;4167;48.162;11.542;2022-12-29T06:04:18;131.83;;;47.53;;
8254;SDS011;4167;48.162;11.542;2022-12-29T06:06:46;175.57;;;49.50;;
8254;SDS011;4167;48.162;11.542;2022-12-29T06:09:12;94.83;;;46.07;;
8254;SDS011;4167;48.162;11.542;2022-12-29T06:11:39;114.70;;;46.93;;
8254;SDS011;4167;48.162;11.542;2022-12-29T06:14:06;121.23;;;47.03;;
8254;SDS011;4167;48.162;11.542;2022-12-29T06:16:32;159.73;;;49.00;;
8254;SDS011;4167;48.162;11.542;2022-12-29T06:18:59;125.80;;;47.23;;
8254;SDS011;4167;48.162;11.542;2022-12-29T06:21:26;103.13;;;45.80;;
8254;SDS011;4167;48.162;11.542;2022-12-29T06:23:54;122.10;;;46.50;;
8254;SDS011;4167;48.162;11.542;2022-12-29T06:26:20;107.00;;;46.63;;
8254;SDS011;4167;48.162;11.542;2022-12-29T06:28:47;95.17;;;46.03;;
8254;SDS011;4167;48.162;11.542;2022-12-29T06:31:13;199.47;;;50.87;;
8254;SDS011;4167;48.162;11.542;2022-12-29T06:33:40;98.73;;;46.33;;
8254;SDS011;4167;48.162;11.542;2022-12-29T06:36:06;84.90;;;45.03;;
8254;SDS011;4167;48.162;11.542;2022-12-29T06:38:33;91.03;;;45.63;;
8254;SDS011;4167;48.162;11.542;2022-12-29T06:41:02;128.47;;;47.27;;
8254;SDS011;4167;48.162;11.542;2022-12-29T06:43:28;147.90;;;48.23;;
8254;SDS011;4167;48.162;11.542;2022-12-29T06:45:55;170.37;;;49.80;;
8254;SDS011;4167;48.162;11.542;2022-12-29T06:48:22;115.13;;;46.40;;
8254;SDS011;4167;48.162;11.542;2022-12-29T06:50:48;149.23;;;48.67;;
8254;SDS011;4167;48.162;11.542;2022-12-29T06:53:15;107.00;;;46.10;;
8254;SDS011;4167;48.162;11.542;2022-12-29T06:55:41;98.67;;;45.47;;
8254;SDS011;4167;48.162;11.542;2022-12-29T06:58:09;135.03;;;47.40;;
8254;SDS011;4167;48.162;11.542;2022-12-29T07:00:36;156.87;;;48.97;;
8254;SDS011;4167;48.162;11.542;2022-12-29T07:03:02;123.03;;;47.07;;
8254;SDS011;4167;48.162;11.542;2022-12-29T07:05:29;105.20;;;45.93;;
8254;SDS011;4167;48.162;11.542;2022-12-29T07:07:57;133.57;;;47.83;;
8254;SDS011;4167;48.162;11.542;2022-12-29T07:10:25;280.53;;;55.27;;
8254;SDS011;4167;48.162;11.542;2022-12-29T07:12:51;132.40;;;47.30;;
8254;SDS011;4167;48.162;11.542;2022-12-29T07:15:19;172.67;;;49.37;;
8254;SDS011;4167;48.162;11.542;2022-12-29T07:17:46;95.13;;;46.47;;
8254;SDS011;4167;48.162;11.542;2022-12-29T07:20:14;179.27;;;50.13;;
8254;SDS011;4167;48.162;11.542;2022-12-29T07:22:41;122.17;;;47.17;;
8254;SDS011;4167;48.162;11.542;2022-12-29T07:25:08;123.27;;;48.23;;
8254;SDS011;4167;48.162;11.542;2022-12-29T07:27:35;114.20;;;47.10;;
8254;SDS011;4167;48.162;11.542;2022-12-29T07:30:01;134.67;;;48.10;;
8254;SDS011;4167;48.162;11.542;2022-12-29T07:32:29;118.20;;;46.83;;
8254;SDS011;4167;48.162;11.542;2022-12-29T07:34:58;121.27;;;47.80;;
8254;SDS011;4167;48.162;11.542;2022-12-29T07:37:25;129.03;;;48.00;;
8254;SDS011;4167;48.162;11.542;2022-12-29T07:39:51;154.47;;;48.93;;
8254;SDS011;4167;48.162;11.542;2022-12-29T07:42:18;150.90;;;48.77;;
8254;SDS011;4167;48.162;11.542;2022-12-29T07:44:44;143.07;;;48.40;;
8254;SDS011;4167;48.162;11.542;2022-12-29T07:47:11;231.67;;;52.43;;
8254;SDS011;4167;48.162;11.542;2022-12-29T07:49:39;135.23;;;48.10;;
8254;SDS011;4167;48.162;11.542;2022-12-29T07:52:05;118.93;;;47.17;;
8254;SDS011;4167;48.162;11.542;2022-12-29T07:54:32;171.37;;;49.63;;
8254;SDS011;4167;48.162;11.542;2022-12-29T07:56:58;186.57;;;50.93;;
8254;SDS011;4167;48.162;11.542;2022-12-29T07:59:26;114.93;;;47.57;;
8254;SDS011;4167;48.162;11.542;2022-12-29T08:01:52;179.97;;;50.23;;
8254;SDS011;4167;48.162;11.542;2022-12-29T08:04:19;310.77;;;56.47;;
8254;SDS011;4167;48.162;11.542;2022-12-29T08:06:47;130.47;;;48.03;;
8254;SDS011;4167;48.162;11.542;2022-12-29T08:09:13;116.87;;;47.30;;
8254;SDS011;4167;48.162;11.542;2022-12-29T08:11:40;126.87;;;48.57;;
8254;SDS011;4167;48.162;11.542;2022-12-29T08:14:08;221.87;;;53.27;;
8254;SDS011;4167;48.162;11.542;2022-12-29T08:16:34;364.63;;;59.77;;
8254;SDS011;4167;48.162;11.542;2022-12-29T08:19:01;118.40;;;47.60;;
8254;SDS011;4167;48.162;11.542;2022-12-29T08:21:29;129.90;;;48.50;;
8254;SDS011;4167;48.162;11.542;2022-12-29T08:23:58;119.43;;;47.87;;
8254;SDS011;4167;48.162;11.542;2022-12-29T08:26:24;337.77;;;58.63;;
8254;SDS011;4167;48.162;11.542;2022-12-29T08:28:51;226.93;;;52.60;;
8254;SDS011;4167;48.162;11.542;2022-12-29T08:31:18;144.50;;;49.30;;
8254;SDS011;4167;48.162;11.542;2022-12-29T08:33:44;165.10;;;50.00;;
8254;SDS011;4167;48.162;11.542;2022-12-29T08:36:11;95.70;;;46.63;;
8254;SDS011;4167;48.162;11.542;2022-12-29T08:38:37;99.23;;;46.73;;
8254;SDS011;4167;48.162;11.542;2022-12-29T08:41:05;157.50;;;49.77;;
8254;SDS011;4167;48.162;11.542;2022-12-29T08:43:32;162.07;;;49.80;;
8254;SDS011;4167;48.162;11.542;2022-12-29T08:45:59;120.37;;;48.17;;
8254;SDS011;4167;48.162;11.542;2022-12-29T08:48:26;138.03;;;48.53;;
8254;SDS011;4167;48.162;11.542;2022-12-29T08:50:52;139.47;;;49.30;;
8254;SDS011;4167;48.162;11.542;2022-12-29T08:53:19;194.80;;;51.70;;
8254;SDS011;4167;48.162;11.542;2022-12-29T08:55:46;137.67;;;49.43;;
8254;SDS011;4167;48.162;11.542;2022-12-29T08:58:14;128.07;;;48.77;;
8254;SDS011;4167;48.162;11.542;2022-12-29T09:00:41;124.17;;;49.00;;
8254;SDS011;4167;48.162;11.542;2022-12-29T09:03:09;88.17;;;47.33;;
8254;SDS011;4167;48.162;11.542;2022-12-29T09:05:36;85.43;;;46.47;;
8254;SDS011;4167;48.162;11.542;2022-12-29T09:08:03;109.47;;;48.53;;
8254;SDS011;4167;48.162;11.542;2022-12-29T09:10:30;190.73;;;51.90;;
8254;SDS011;4167;48.162;11.542;2022-12-29T09:12:57;80.00;;;46.30;;
8254;SDS011;4167;48.162;11.542;2022-12-29T09:15:26;90.97;;;47.27;;
8254;SDS011;4167;48.162;11.542;2022-12-29T09:17:53;217.73;;;54.57;;
8254;SDS011;4167;48.162;11.542;2022-12-29T09:20:20;166.33;;;52.10;;
8254;SDS011;4167;48.162;11.542;2022-12-29T09:22:47;245.20;;;55.43;;
8254;SDS011;4167;48.162;11.542;2022-12-29T09:25:14;191.33;;;52.80;;
8254;SDS011;4167;48.162;11.542;2022-12-29T09:27:41;207.00;;;53.33;;
8254;SDS011;4167;48.162;11.542;2022-12-29T09:30:09;216.17;;;54.23;;
8254;SDS011;4167;48.162;11.542;2022-12-29T09:32:38;262.70;;;56.93;;
8254;SDS011;4167;48.162;11.542;2022-12-29T09:35:05;161.97;;;51.37;;
8254;SDS011;4167;48.162;11.542;2022-12-29T09:37:31;167.43;;;51.80;;
8254;SDS011;4167;48.162;11.542;2022-12-29T09:39:58;262.17;;;57.60;;
8254;SDS011;4167;48.162;11.542;2022-12-29T09:42:26;182.20;;;52.53;;
8254;SDS011;4167;48.162;11.542;2022-12-29T09:44:59;205.43;;;53.30;;
8254;SDS011;4167;48.162;11.542;2022-12-29T09:47:34;271.17;;;57.47;;
8254;SDS011;4167;48.162;11.542;2022-12-29T09:50:03;216.43;;;54.60;;
8254;SDS011;4167;48.162;11.542;2022-12-29T09:52:32;251.83;;;56.70;;
8254;SDS011;4167;48.162;11.542;2022-12-29T09:55:01;197.60;;;54.10;;
8254;SDS011;4167;48.162;11.542;2022-12-29T09:57:32;185.03;;;53.40;;
8254;SDS011;4167;48.162;11.542;2022-12-29T10:00:03;187.50;;;53.70;;
8254;SDS011;4167;48.162;11.542;2022-12-29T10:02:35;162.83;;;52.17;;
8254;SDS011;4167;48.162;11.542;2022-12-29T10:05:12;157.07;;;51.57;;
8254;SDS011;4167;48.162;11.542;2022-12-29T10:07:43;156.33;;;51.80;;
8254;SDS011;4167;48.162;11.542;2022-12-29T10:10:16;174.87;;;53.90;;
8254;SDS011;4167;48.162;11.542;2022-12-29T10:12:56;242.93;;;56.77;;
8254;SDS011;4167;48.162;11.542;2022-12-29T10:15:31;164.97;;;52.37;;
8254;SDS011;4167;48.162;11.542;2022-12-29T10:18:08;133.00;;;50.53;;
8254;SDS011;4167;48.162;11.542;2022-12-29T10:20:44;221.53;;;55.13;;
8254;SDS011;4167;48.162;11.542;2022-12-29T10:23:19;137.17;;;51.37;;
8254;SDS011;4167;48.162;11.542;2022-12-29T10:25:51;269.80;;;58.20;;
8254;SDS011;4167;48.162;11.542;2022-12-29T10:28:20;198.30;;;53.93;;
8254;SDS011;4167;48.162;11.542;2022-12-29T10:30:48;190.40;;;54.03;;
8254;SDS011;4167;48.162;11.542;2022-12-29T10:33:17;191.10;;;54.03;;
8254;SDS011;4167;48.162;11.542;2022-12-29T10:35:47;146.97;;;51.73;;
8254;SDS011;4167;48.162;11.542;2022-12-29T10:38:15;170.40;;;53.47;;
8254;SDS011;4167;48.162;11.542;2022-12-29T10:40:48;159.10;;;52.43;;
8254;SDS011;4167;48.162;11.542;2022-12-29T10:43:20;199.83;;;53.73;;
8254;SDS011;4167;48.162;11.542;2022-12-29T10:45:50;196.03;;;54.13;;
8254;SDS011;4167;48.162;11.542;2022-12-29T10:48:19;186.87;;;53.37;;
8254;SDS011;4167;48.162;11.542;2022-12-29T10:50:49;151.57;;;52.13;;
8254;SDS011;4167;48.162;11.542;2022-12-29T10:53:17;215.47;;;55.73;;
8254;SDS011;4167;48.162;11.542;2022-12-29T10:55:47;198.60;;;54.60;;
8254;SDS011;4167;48.162;11.542;2022-12-29T10:58:13;167.27;;;52.87;;
8254;SDS011;4167;48.162;11.542;2022-12-29T11:00:41;172.87;;;52.20;;
8254;SDS011;4167;48.162;11.542;2022-12-29T11:03:12;204.63;;;54.70;;
8254;SDS011;4167;48.162;11.542;2022-12-29T11:06:06;206.63;;;54.53;;
8254;SDS011;4167;48.162;11.542;2022-12-29T11:08:37;161.93;;;52.37;;
8254;SDS011;4167;48.162;11.542;2022-12-29T11:11:06;154.60;;;51.33;;
8254;SDS011;4167;48.162;11.542;2022-12-29T11:13:34;248.87;;;56.50;;
8254;SDS011;4167;48.162;11.542;2022-12-29T11:16:02;220.97;;;55.73;;
8254;SDS011;4167;48.162;11.542;2022-12-29T11:18:31;227.07;;;55.90;;
8254;SDS011;4167;48.162;11.542;2022-12-29T11:21:01;263.07;;;57.90;;
8254;SDS011;4167;48.162;11.542;2022-12-29T11:23:32;272.57;;;58.47;;
8254;SDS011;4167;48.162;11.542;2022-12-29T11:26:06;208.47;;;55.40;;
8254;SDS011;4167;48.162;11.542;2022-12-29T11:28:37;230.93;;;56.93;;
8254;SDS011;4167;48.162;11.542;2022-12-29T11:31:05;238.80;;;57.67;;
8254;SDS011;4167;48.162;11.542;2022-12-29T11:33:33;235.13;;;57.57;;
8254;SDS011;4167;48.162;11.542;2022-12-29T11:36:01;265.77;;;58.97;;
8254;SDS011;4167;48.162;11.542;2022-12-29T11:38:33;182.27;;;54.60;;
8254;SDS011;4167;48.162;11.542;2022-12-29T11:41:01;239.93;;;57.10;;
8254;SDS011;4167;48.162;11.542;2022-12-29T11:43:29;153.60;;;52.27;;
8254;SDS011;4167;48.162;11.542;2022-12-29T11:45:58;164.77;;;53.63;;
8254;SDS011;4167;48.162;11.542;2022-12-29T11:48:29;232.57;;;57.10;;
8254;SDS011;4167;48.162;11.542;2022-12-29T11:50:56;213.67;;;55.90;;
8254;SDS011;4167;48.162;11.542;2022-12-29T11:53:24;195.65;;;59.10;;
8254;SDS011;4167;48.162;11.542;2022-12-29T11:55:54;166.13;;;54.77;;
8254;SDS011;4167;48.162;11.542;2022-12-29T11:58:28;179.53;;;54.77;;
8254;SDS011;4167;48.162;11.542;2022-12-29T12:00:57;210.57;;;55.23;;
8254;SDS011;4167;48.162;11.542;2022-12-29T12:03:26;175.17;;;54.10;;
8254;SDS011;4167;48.162;11.542;2022-12-29T12:05:54;212.90;;;55.30;;
8254;SDS011;4167;48.162;11.542;2022-12-29T12:08:24;288.20;;;60.07;;
8254;SDS011;4167;48.162;11.542;2022-12-29T12:10:58;226.57;;;56.67;;
8254;SDS011;4167;48.162;11.542;2022-12-29T12:13:31;183.67;;;54.40;;
8254;SDS011;4167;48.162;11.542;2022-12-29T12:16:02;175.50;;;53.53;;
8254;SDS011;4167;48.162;11.542;2022-12-29T12:18:32;196.90;;;54.20;;
8254;SDS011;4167;48.162;11.542;2022-12-29T12:21:08;233.77;;;56.20;;
8254;SDS011;4167;48.162;11.542;2022-12-29T12:23:44;246.87;;;57.27;;
8254;SDS011;4167;48.162;11.542;2022-12-29T12:26:23;194.93;;;53.73;;
8254;SDS011;4167;48.162;11.542;2022-12-29T12:28:55;208.47;;;55.60;;
8254;SDS011;4167;48.162;11.542;2022-12-29T12:31:27;267.33;;;58.20;;
8254;SDS011;4167;48.162;11.542;2022-12-29T12:34:05;263.87;;;58.03;;
8254;SDS011;4167;48.162;11.542;2022-12-29T12:36:41;226.43;;;55.70;;
8254;SDS011;4167;48.162;11.542;2022-12-29T12:39:18;203.73;;;54.63;;
8254;SDS011;4167;48.162;11.542;2022-12-29T12:41:54;244.13;;;57.33;;
8254;SDS011;4167;48.162;11.542;2022-12-29T12:44:27;241.63;;;56.80;;
8254;SDS011;4167;48.162;11.542;2022-12-29T12:47:01;318.53;;;61.00;;
8254;SDS011;4167;48.162;11.542;2022-12-29T12:50:00;177.63;;;53.53;;
8254;SDS011;4167;48.162;11.542;2022-12-29T12:52:33;180.90;;;53.00;;
8254;SDS011;4167;48.162;11.542;2022-12-29T12:55:16;199.93;;;54.73;;
8254;SDS011;4167;48.162;11.542;2022-12-29T12:57:53;202.90;;;54.33;;
8254;SDS011;4167;48.162;11.542;2022-12-29T13:00:24;179.40;;;53.17;;
8254;SDS011;4167;48.162;11.542;2022-12-29T13:03:03;194.80;;;54.03;;
8254;SDS011;4167;48.162;11.542;2022-12-29T13:05:38;178.70;;;53.97;;
8254;SDS011;4167;48.162;11.542;2022-12-29T13:08:20;224.73;;;55.77;;
8254;SDS011;4167;48.162;11.542;2022-12-29T13:10:53;321.80;;;61.27;;
8254;SDS011;4167;48.162;11.542;2022-12-29T13:13:32;184.60;;;53.63;;
8254;SDS011;4167;48.162;11.542;2022-12-29T13:16:09;224.27;;;55.50;;
8254;SDS011;4167;48.162;11.542;2022-12-29T13:18:44;241.60;;;56.80;;
8254;SDS011;4167;48.162;11.542;2022-12-29T13:21:16;253.30;;;57.10;;
8254;SDS011;4167;48.162;11.542;2022-12-29T13:23:52;164.17;;;52.80;;
8254;SDS011;4167;48.162;11.542;2022-12-29T13:26:22;173.70;;;53.47;;
8254;SDS011;4167;48.162;11.542;2022-12-29T13:28:55;275.57;;;59.50;;
8254;SDS011;4167;48.162;11.542;2022-12-29T13:31:26;154.67;;;52.23;;
8254;SDS011;4167;48.162;11.542;2022-12-29T13:33:56;215.80;;;55.30;;
8254;SDS011;4167;48.162;11.542;2022-12-29T13:36:25;232.50;;;56.23;;
8254;SDS011;4167;48.162;11.542;2022-12-29T13:38:57;167.60;;;52.63;;
8254;SDS011;4167;48.162;11.542;2022-12-29T13:41:30;217.77;;;56.20;;
8254;SDS011;4167;48.162;11.542;2022-12-29T13:44:00;226.53;;;56.27;;
8254;SDS011;4167;48.162;11.542;2022-12-29T13:46:27;206.17;;;55.53;;
8254;SDS011;4167;48.162;11.542;2022-12-29T13:48:57;259.20;;;58.30;;
8254;SDS011;4167;48.162;11.542;2022-12-29T13:51:26;224.40;;;55.43;;
8254;SDS011;4167;48.162;11.542;2022-12-29T13:53:55;201.57;;;54.47;;
8254;SDS011;4167;48.162;11.542;2022-12-29T13:56:31;192.73;;;54.43;;
8254;SDS011;4167;48.162;11.542;2022-12-29T13:59:04;285.33;;;59.63;;
8254;SDS011;4167;48.162;11.542;2022-12-29T14:01:33;203.93;;;54.27;;
8254;SDS011;4167;48.162;11.542;2022-12-29T14:04:02;501.53;;;72.20;;
8254;SDS011;4167;48.162;11.542;2022-12-29T14:06:38;394.57;;;65.93;;
8254;SDS011;4167;48.162;11.542;2022-12-29T14:09:07;489.13;;;70.23;;
8254;SDS011;4167;48.162;11.542;2022-12-29T14:11:57;322.57;;;61.00;;
8254;SDS011;4167;48.162;11.542;2022-12-29T14:14:27;545.30;;;73.97;;
8254;SDS011;4167;48.162;11.542;2022-12-29T14:16:56;338.77;;;62.10;;
8254;SDS011;4167;48.162;11.542;2022-12-29T14:19:38;454.70;;;69.07;;
8254;SDS011;4167;48.162;11.542;2022-12-29T14:22:06;411.70;;;65.90;;
8254;SDS011;4167;48.162;11.542;2022-12-29T14:24:41;463.10;;;73.05;;
8254;SDS011;4167;48.162;11.542;2022-12-29T14:33:26;174.40;;;53.00;;
8254;SDS011;4167;48.162;11.542;2022-12-29T14:35:55;211.13;;;54.90;;
8254;SDS011;4167;48.162;11.542;2022-12-29T14:38:23;316.70;;;61.07;;
8254;SDS011;4167;48.162;11.542;2022-12-29T14:40:51;194.70;;;53.70;;
8254;SDS011;4167;48.162;11.542;2022-12-29T14:43:19;235.83;;;55.70;;
8254;SDS011;4167;48.162;11.542;2022-12-29T14:45:51;165.77;;;51.90;;
8254;SDS011;4167;48.162;11.542;2022-12-29T14:48:38;166.43;;;52.43;;
8254;SDS011;4167;48.162;11.542;2022-12-29T14:51:18;197.93;;;53.63;;
8254;SDS011;4167;48.162;11.542;2022-12-29T14:53:47;173.47;;;52.57;;